Time;durP1;ratioP1;P1;durP2;ratioP2;P2;SDS_P1;SDS_P2;PMS_P1;PMS_P2;Temp;Humidity;BMP_temperature;BMP_pressure;BME280_temperature;BME280_humidity;BME280_pressure;Samples;Min_cycle;Max_cycle;Signal;HPM_P1;HPM_P2
2023/09/14 00:00:13;;;;;;;;;11.67;10.33;;;;;20.51;76.05;101821.19;5087011;27;68762;-50
2023/09/14 00:02:39;;;;;;;;;16.33;13.33;;;;;20.50;75.70;101828.41;5094624;27;45449;-50
2023/09/14 00:05:05;;;;;;;;;12.00;12.00;;;;;20.48;76.16;101821.41;5088824;27;69330;-49
2023/09/14 00:07:32;;;;;;;;;13.33;12.00;;;;;20.46;76.81;101816.13;5100688;27;47767;-50
2023/09/14 00:09:57;;;;;;;;;13.33;11.67;;;;;20.43;77.19;101815.50;5094175;27;45302;-50
2023/09/14 00:12:23;;;;;;;;;12.33;12.33;;;;;20.41;76.22;101809.34;5084901;27;45592;-49
2023/09/14 00:14:48;;;;;;;;;11.33;11.00;;;;;20.39;76.89;101811.28;5092538;27;45389;-52
2023/09/14 00:17:13;;;;;;;;;12.00;12.00;;;;;20.38;76.71;101815.00;5089969;27;73269;-49
2023/09/14 00:19:38;;;;;;;;;15.33;14.00;;;;;20.36;77.39;101811.53;5087778;27;68278;-52
2023/09/14 00:22:04;;;;;;;;;11.00;11.00;;;;;20.31;77.57;101809.16;5094157;27;64999;-51
2023/09/14 00:24:29;;;;;;;;;13.00;12.00;;;;;20.28;77.23;101812.13;5101336;27;45465;-52
2023/09/14 00:26:55;;;;;;;;;12.67;12.67;;;;;20.27;77.68;101815.78;5100249;27;64766;-49
2023/09/14 00:29:20;;;;;;;;;18.00;15.33;;;;;20.27;77.23;101813.09;5089163;27;45300;-49
2023/09/14 00:31:45;;;;;;;;;18.00;16.33;;;;;20.27;77.43;101813.97;5092459;27;69214;-48
2023/09/14 00:34:10;;;;;;;;;16.33;16.33;;;;;20.26;77.68;101814.06;5097890;27;57937;-51
2023/09/14 00:36:36;;;;;;;;;18.00;16.67;;;;;20.23;77.50;101811.59;5091129;27;70804;-48
2023/09/14 00:39:01;;;;;;;;;14.00;14.00;;;;;20.22;77.47;101809.88;5097028;27;45413;-49
2023/09/14 00:41:26;;;;;;;;;17.67;16.00;;;;;20.21;78.15;101819.81;5100241;27;67893;-48
2023/09/14 00:43:52;;;;;;;;;15.00;15.00;;;;;20.20;77.89;101810.00;5086065;27;45534;-49
2023/09/14 00:46:17;;;;;;;;;15.67;15.67;;;;;20.18;78.01;101811.97;5085946;27;65693;-48
2023/09/14 00:48:43;;;;;;;;;20.67;17.00;;;;;20.16;77.57;101814.75;5075484;27;64649;-50
2023/09/14 00:51:08;;;;;;;;;16.00;14.67;;;;;20.16;77.64;101816.59;5093689;27;58789;-50
2023/09/14 00:53:34;;;;;;;;;18.67;18.67;;;;;20.15;78.25;101818.44;5087600;27;45281;-50
2023/09/14 00:56:00;;;;;;;;;14.00;14.00;;;;;20.14;78.28;101821.25;5096391;27;69149;-51
2023/09/14 00:58:26;;;;;;;;;16.33;14.67;;;;;20.11;78.23;101813.38;5080058;27;45496;-51
2023/09/14 01:00:51;;;;;;;;;15.67;13.33;;;;;20.07;79.23;101812.75;5072493;27;50350;-51
2023/09/14 01:03:17;;;;;;;;;14.00;13.00;;;;;20.06;78.39;101821.81;5099616;27;45680;-52
2023/09/14 01:05:44;;;;;;;;;15.67;15.67;;;;;20.06;78.85;101812.88;5066731;27;47021;-51
2023/09/14 01:08:09;;;;;;;;;20.33;17.67;;;;;20.04;78.71;101812.09;5100290;27;45573;-50
2023/09/14 01:10:35;;;;;;;;;17.00;16.33;;;;;20.00;78.89;101816.91;5079654;27;45270;-49
2023/09/14 01:13:01;;;;;;;;;14.33;14.33;;;;;19.95;78.60;101816.38;5097876;27;45358;-51
2023/09/14 01:15:32;;;;;;;;;12.00;11.00;;;;;19.93;79.51;101815.59;5099930;27;46051;-51
2023/09/14 01:18:03;;;;;;;;;14.67;14.67;;;;;19.90;79.45;101816.69;5079171;27;45412;-51
2023/09/14 01:20:58;;;;;;;;;13.33;13.33;;;;;19.86;79.64;101822.44;5090402;27;45383;-51
2023/09/14 01:23:47;;;;;;;;;12.67;12.67;;;;;19.82;79.49;101816.41;5079414;27;45462;-51
2023/09/14 01:26:13;;;;;;;;;16.00;16.00;;;;;19.81;80.20;101817.34;5088031;27;46365;-50
2023/09/14 01:28:38;;;;;;;;;19.00;14.00;;;;;19.80;79.52;101821.00;5074627;28;71369;-52
2023/09/14 01:31:04;;;;;;;;;15.33;14.00;;;;;19.81;79.29;101820.03;5082260;27;45627;-49
2023/09/14 01:33:29;;;;;;;;;14.33;13.33;;;;;19.81;79.67;101820.03;5081976;27;58318;-50
2023/09/14 01:36:13;;;;;;;;;13.33;13.00;;;;;19.81;79.92;101815.53;5076921;27;46033;-49
2023/09/14 01:38:39;;;;;;;;;14.00;14.00;;;;;19.80;80.23;101821.00;5092594;27;45286;-48
2023/09/14 01:41:05;;;;;;;;;14.33;14.00;;;;;19.74;79.87;101816.94;5069922;27;67841;-48
2023/09/14 01:43:31;;;;;;;;;13.00;13.00;;;;;19.71;79.90;101817.16;5076382;27;69993;-47
2023/09/14 01:45:56;;;;;;;;;13.67;13.67;;;;;19.69;79.83;101818.25;5081534;27;47156;-49
2023/09/14 01:48:23;;;;;;;;;16.67;12.00;;;;;19.67;80.17;101821.91;5093167;27;72157;-50
2023/09/14 01:50:48;;;;;;;;;15.33;13.00;;;;;19.65;79.61;101826.56;5091503;27;45286;-53
2023/09/14 01:53:14;;;;;;;;;13.33;13.33;;;;;19.66;80.06;101822.88;5100381;27;45354;-51
2023/09/14 01:55:39;;;;;;;;;11.00;11.00;;;;;19.66;80.19;101825.59;5073020;27;47358;-49
2023/09/14 01:58:05;;;;;;;;;11.33;11.00;;;;;19.65;80.10;101821.16;5086587;27;45505;-49
2023/09/14 02:00:30;;;;;;;;;14.00;14.00;;;;;19.63;79.82;101816.84;5090140;27;45411;-50
2023/09/14 02:02:55;;;;;;;;;13.00;10.33;;;;;19.60;79.86;101817.06;5090590;27;69348;-49
2023/09/14 02:05:21;;;;;;;;;12.67;10.33;;;;;19.56;80.59;101820.97;5094266;27;68472;-49
2023/09/14 02:07:46;;;;;;;;;19.00;12.67;;;;;19.51;80.77;101821.28;5086535;27;68560;-50
2023/09/14 02:10:13;;;;;;;;;12.67;12.67;;;;;19.47;80.15;101814.41;5098846;27;45532;-47
2023/09/14 02:12:38;;;;;;;;;17.00;14.00;;;;;19.44;80.35;101817.31;5095636;27;45538;-51
2023/09/14 02:15:04;;;;;;;;;11.00;11.00;;;;;19.42;79.55;101819.25;5087452;27;46520;-50
2023/09/14 02:17:30;;;;;;;;;9.67;9.33;;;;;19.39;80.28;101823.03;5083278;27;45578;-52
2023/09/14 02:19:56;;;;;;;;;10.00;7.67;;;;;19.37;80.08;101819.56;5080716;27;45424;-51
2023/09/14 02:22:21;;;;;;;;;11.67;10.67;;;;;19.35;80.03;101810.75;5093190;27;45407;-52
2023/09/14 02:24:47;;;;;;;;;12.00;12.00;;;;;19.33;80.56;101801.88;5097166;27;45320;-52
2023/09/14 02:27:12;;;;;;;;;12.00;9.33;;;;;19.32;80.45;101805.56;5095511;27;45674;-48
2023/09/14 02:29:38;;;;;;;;;11.67;11.00;;;;;19.28;81.19;101810.31;5084643;27;45862;-52
2023/09/14 02:32:04;;;;;;;;;11.00;11.00;;;;;19.25;81.18;101810.53;5089103;27;69423;-52
2023/09/14 02:34:29;;;;;;;;;14.00;12.00;;;;;19.22;81.37;101802.66;5087085;27;46893;-51
2023/09/14 02:36:54;;;;;;;;;10.00;10.00;;;;;19.21;80.71;101802.78;5086282;27;45434;-50
2023/09/14 02:39:20;;;;;;;;;11.00;11.00;;;;;19.20;81.48;101806.44;5086936;27;67058;-51
2023/09/14 02:41:45;;;;;;;;;10.00;10.00;;;;;19.17;81.37;101804.81;5085286;27;66741;-50
2023/09/14 02:44:10;;;;;;;;;12.67;10.33;;;;;19.14;82.14;101803.22;5096570;27;46053;-48
2023/09/14 02:46:36;;;;;;;;;12.00;12.00;;;;;19.12;81.69;101798.88;5085369;27;58908;-49
2023/09/14 02:49:01;;;;;;;;;12.00;10.00;;;;;19.08;81.58;101803.63;5092655;27;50907;-49
2023/09/14 02:51:26;;;;;;;;;12.00;12.00;;;;;19.07;82.04;101792.97;5092474;27;66700;-49
2023/09/14 02:53:52;;;;;;;;;8.33;7.33;;;;;19.03;82.03;101805.78;5083717;27;71203;-49
2023/09/14 02:56:17;;;;;;;;;10.00;10.00;;;;;18.98;82.91;101800.72;5089433;27;63911;-49
2023/09/14 02:58:42;;;;;;;;;13.00;11.00;;;;;18.97;82.96;101800.84;5079070;27;67277;-50
2023/09/14 03:01:09;;;;;;;;;10.00;10.00;;;;;18.94;82.91;101807.31;5082280;27;66887;-51
2023/09/14 03:03:38;;;;;;;;;10.67;10.67;;;;;18.92;82.42;101800.31;5087217;27;45524;-49
2023/09/14 03:06:05;;;;;;;;;10.00;10.00;;;;;18.88;83.20;101798.72;5087848;27;45380;-51
2023/09/14 03:08:31;;;;;;;;;9.67;9.00;;;;;18.84;83.49;101784.63;5090278;27;45538;-48
2023/09/14 03:10:57;;;;;;;;;11.67;10.00;;;;;18.81;83.71;101795.59;5090903;27;45209;-51
2023/09/14 03:13:22;;;;;;;;;10.33;9.67;;;;;18.79;83.65;101793.03;5091439;27;45271;-50
2023/09/14 03:15:58;;;;;;;;;13.00;10.33;;;;;18.77;84.24;101796.78;5076770;27;45252;-49
2023/09/14 03:18:23;;;;;;;;;9.67;8.00;;;;;18.74;83.96;101788.94;5091725;27;46226;-50
2023/09/14 03:20:51;;;;;;;;;10.33;10.33;;;;;18.72;84.23;101796.25;5082878;27;45268;-50
2023/09/14 03:23:16;;;;;;;;;10.00;9.33;;;;;18.67;84.51;101791.19;5073141;27;46125;-52
2023/09/14 03:25:42;;;;;;;;;11.33;9.67;;;;;18.66;84.79;101789.47;5101663;27;64693;-50
2023/09/14 03:28:08;;;;;;;;;10.67;8.00;;;;;18.63;84.54;101790.53;5098789;27;46915;-51
2023/09/14 03:30:35;;;;;;;;;9.67;9.67;;;;;18.61;85.28;101786.22;5089183;27;45563;-49
2023/09/14 03:33:00;;;;;;;;;11.00;8.33;;;;;18.58;84.81;101784.59;5079487;27;46203;-50
2023/09/14 03:35:25;;;;;;;;;10.33;10.33;;;;;18.57;84.77;101785.56;5093554;27;45417;-50
2023/09/14 03:37:51;;;;;;;;;10.00;10.00;;;;;18.57;85.17;101782.84;5085813;27;45448;-51
2023/09/14 03:40:16;;;;;;;;;8.33;8.00;;;;;18.56;84.99;101780.28;5085443;27;45347;-49
2023/09/14 03:42:41;;;;;;;;;9.00;8.33;;;;;18.54;85.18;101777.69;5096319;27;46100;-49
2023/09/14 03:45:08;;;;;;;;;11.33;9.00;;;;;18.52;85.82;101782.31;5097349;27;53107;-49
2023/09/14 03:47:33;;;;;;;;;12.00;9.00;;;;;18.50;85.78;101781.56;5088120;27;45310;-52
2023/09/14 03:49:58;;;;;;;;;10.33;9.00;;;;;18.47;85.77;101777.25;5088988;27;66061;-49
2023/09/14 03:52:24;;;;;;;;;10.00;10.00;;;;;18.46;85.80;101780.03;5089552;27;75251;-51
2023/09/14 03:54:49;;;;;;;;;10.33;9.67;;;;;18.44;86.14;101780.13;5085532;27;45477;-49
2023/09/14 03:57:14;;;;;;;;;9.00;8.67;;;;;18.42;86.08;101778.50;5090618;27;62049;-49
2023/09/14 03:59:42;;;;;;;;;10.00;9.00;;;;;18.43;86.31;101780.25;5089197;27;45592;-50
2023/09/14 04:02:08;;;;;;;;;11.00;11.00;;;;;18.41;86.59;101783.06;5097116;27;46139;-53
2023/09/14 04:04:33;;;;;;;;;10.67;9.33;;;;;18.39;86.06;101779.59;5088503;27;45401;-51
2023/09/14 04:06:59;;;;;;;;;11.67;8.67;;;;;18.39;86.55;101774.19;5093241;27;66091;-50
2023/09/14 04:09:29;;;;;;;;;10.67;10.00;;;;;18.38;86.38;101771.63;5096425;27;65588;-51
2023/09/14 04:11:54;;;;;;;;;13.00;10.33;;;;;18.33;86.47;101778.19;5081111;27;45413;-48
2023/09/14 04:14:20;;;;;;;;;9.33;9.33;;;;;18.32;87.19;101781.84;5094245;27;45434;-47
2023/09/14 04:16:46;;;;;;;;;10.00;9.00;;;;;18.29;86.96;101771.28;5097395;27;62548;-51
2023/09/14 04:19:12;;;;;;;;;13.33;11.00;;;;;18.29;86.76;101771.28;5097626;27;45431;-51
2023/09/14 04:21:38;;;;;;;;;11.33;11.00;;;;;18.27;86.25;101769.66;5086630;27;46266;-50
2023/09/14 04:24:03;;;;;;;;;11.67;10.00;;;;;18.27;86.52;101772.34;5095577;27;45470;-48
2023/09/14 04:26:29;;;;;;;;;10.67;10.67;;;;;18.25;87.19;101776.97;5101351;27;45386;-51
2023/09/14 04:28:54;;;;;;;;;6.67;6.67;;;;;18.23;87.20;101774.38;5078722;27;45390;-49
2023/09/14 04:31:19;;;;;;;;;9.67;9.67;;;;;18.22;87.33;101774.50;5100700;27;46135;-50
2023/09/14 04:33:45;;;;;;;;;10.67;10.67;;;;;18.21;87.18;101773.59;5094006;27;45417;-47
2023/09/14 04:36:10;;;;;;;;;12.00;12.00;;;;;18.19;87.49;101776.41;5080159;27;45424;-47
2023/09/14 04:38:35;;;;;;;;;13.67;10.33;;;;;18.17;87.32;101774.78;5087931;27;45461;-50
2023/09/14 04:41:04;;;;;;;;;14.00;11.33;;;;;18.17;87.48;101772.97;5084271;27;75508;-51
2023/09/14 04:43:32;;;;;;;;;14.00;14.00;;;;;18.15;87.79;101772.19;5097152;27;45644;-52
2023/09/14 04:46:01;;;;;;;;;12.33;12.33;;;;;18.12;87.95;101775.09;5081118;27;45348;-52
2023/09/14 04:48:26;;;;;;;;;15.00;13.00;;;;;18.09;88.48;101772.59;5079468;27;45636;-49
2023/09/14 04:50:55;;;;;;;;;14.00;10.33;;;;;18.09;88.79;101787.91;5083130;27;45307;-51
2023/09/14 04:53:20;;;;;;;;;13.00;11.33;;;;;18.06;88.76;101788.13;5083283;27;45441;-49
2023/09/14 04:55:45;;;;;;;;;20.00;13.67;;;;;18.05;88.34;101781.84;5080989;27;45292;-50
2023/09/14 04:58:11;;;;;;;;;13.67;12.00;;;;;18.03;88.45;101791.88;5080351;27;45564;-50
2023/09/14 05:00:37;;;;;;;;;16.33;12.67;;;;;18.03;88.64;101791.88;5086690;27;69296;-51
2023/09/14 05:03:04;;;;;;;;;14.67;13.67;;;;;18.00;88.16;101787.56;5087656;27;45434;-52
2023/09/14 05:05:31;;;;;;;;;14.33;13.00;;;;;18.02;88.15;101793.69;5069224;27;45372;-49
2023/09/14 05:07:56;;;;;;;;;13.67;13.67;;;;;18.03;88.56;101789.19;5086268;27;45597;-51
2023/09/14 05:10:21;;;;;;;;;16.67;15.00;;;;;18.05;88.47;101797.16;5080540;27;74491;-50
2023/09/14 05:12:47;;;;;;;;;18.33;15.67;;;;;18.04;88.18;101798.09;5084210;27;45410;-52
2023/09/14 05:15:12;;;;;;;;;14.33;12.67;;;;;18.04;88.00;101806.19;5084714;27;56385;-52
2023/09/14 05:17:37;;;;;;;;;16.67;14.33;;;;;18.02;87.97;101806.28;5080242;28;55721;-49
2023/09/14 05:20:09;;;;;;;;;17.67;14.67;;;;;18.02;88.00;101807.13;5085830;27;46351;-52
2023/09/14 05:22:34;;;;;;;;;14.33;14.33;;;;;18.01;88.06;101802.72;5082608;27;45500;-52
2023/09/14 05:25:00;;;;;;;;;15.00;13.67;;;;;18.02;88.15;101812.53;5086946;27;45500;-52
2023/09/14 05:27:25;;;;;;;;;17.00;16.33;;;;;18.01;88.02;101808.09;5093225;27;45718;-50
2023/09/14 05:29:51;;;;;;;;;17.00;14.67;;;;;18.00;87.49;101805.50;5058805;27;46563;-50
2023/09/14 05:32:17;;;;;;;;;22.67;16.67;;;;;17.98;88.03;101807.47;5082352;27;45477;-50
2023/09/14 05:34:42;;;;;;;;;18.00;15.33;;;;;17.98;86.96;101802.94;5059749;28;45782;-51
2023/09/14 05:37:08;;;;;;;;;14.33;13.67;;;;;17.99;88.09;101806.47;5067508;27;45573;-48
2023/09/14 05:39:33;;;;;;;;;14.00;12.67;;;;;17.99;87.69;101812.75;5083821;27;45303;-52
2023/09/14 05:41:58;;;;;;;;;13.33;12.67;;;;;17.98;88.06;101813.69;5087321;27;64406;-49
2023/09/14 05:44:23;;;;;;;;;16.00;13.33;;;;;18.00;87.43;101811.78;5085436;27;59288;-50
2023/09/14 05:46:49;;;;;;;;;10.67;10.00;;;;;18.02;87.05;101809.84;5085570;27;66802;-52
2023/09/14 05:49:14;;;;;;;;;13.67;11.00;;;;;18.05;87.56;101811.47;5097902;27;62810;-52
2023/09/14 05:51:39;;;;;;;;;12.00;12.00;;;;;18.06;87.89;101815.88;5085094;27;68065;-53
2023/09/14 05:54:05;;;;;;;;;10.33;10.00;;;;;18.10;87.53;101819.25;5082189;27;65638;-52
2023/09/14 05:56:32;;;;;;;;;13.67;12.00;;;;;18.13;87.18;101832.50;5096715;27;45237;-51
2023/09/14 05:58:57;;;;;;;;;12.00;12.00;;;;;18.12;86.58;101830.75;5090344;27;48489;-52
2023/09/14 06:01:22;;;;;;;;;11.00;11.00;;;;;18.14;87.14;101828.84;5091778;27;45355;-51
2023/09/14 06:03:48;;;;;;;;;10.67;10.67;;;;;18.16;86.85;101830.47;5088190;27;47670;-53
2023/09/14 06:06:13;;;;;;;;;14.67;13.00;;;;;18.21;86.83;101829.28;5089692;27;45585;-54
2023/09/14 06:08:40;;;;;;;;;10.33;10.33;;;;;18.25;86.77;101826.31;5089282;27;46117;-54
2023/09/14 06:11:05;;;;;;;;;11.67;10.67;;;;;18.30;86.26;101840.34;5085058;27;45801;-53
2023/09/14 06:13:31;;;;;;;;;13.67;12.00;;;;;18.37;86.28;101838.09;5095106;27;63746;-51
2023/09/14 06:15:56;;;;;;;;;14.00;13.33;;;;;18.42;85.74;101832.38;5098465;27;70582;-51
2023/09/14 06:18:21;;;;;;;;;10.67;10.33;;;;;18.48;85.80;101838.22;5060492;27;47119;-53
2023/09/14 06:20:47;;;;;;;;;16.33;13.00;;;;;18.55;85.15;101836.00;5084356;27;72902;-53
2023/09/14 06:23:12;;;;;;;;;10.67;10.67;;;;;18.60;84.83;101839.22;5090495;27;45272;-51
2023/09/14 06:25:38;;;;;;;;;10.67;10.67;;;;;18.70;85.08;101838.63;5088171;27;45387;-51
2023/09/14 06:28:03;;;;;;;;;10.00;9.67;;;;;18.77;84.70;101830.00;5086555;27;47107;-50
2023/09/14 06:30:29;;;;;;;;;16.33;14.67;;;;;18.88;84.17;101831.97;5073707;27;45351;-49
2023/09/14 06:32:54;;;;;;;;;15.33;13.67;;;;;19.53;84.78;101831.97;5069434;28;45469;-49
2023/09/14 06:35:20;;;;;;;;;13.33;13.00;;;;;21.02;82.24;101832.66;5090446;27;69183;-51
2023/09/14 06:37:45;;;;;;;;;11.33;11.00;;;;;22.37;76.28;101833.56;5082834;27;74577;-52
2023/09/14 06:40:10;;;;;;;;;17.00;13.67;;;;;23.85;72.65;101825.31;5096137;27;45645;-51
2023/09/14 06:42:36;;;;;;;;;13.00;13.00;;;;;25.32;68.79;101826.13;5087546;27;45512;-51
2023/09/14 06:45:02;;;;;;;;;13.33;12.00;;;;;26.68;63.90;101830.88;5085604;27;45456;-51
2023/09/14 06:47:27;;;;;;;;;11.67;11.67;;;;;27.68;61.89;101822.31;5089471;27;46185;-52
2023/09/14 06:49:52;;;;;;;;;11.00;11.00;;;;;28.48;60.14;101835.47;5089263;27;70358;-52
2023/09/14 06:52:18;;;;;;;;;10.33;10.33;;;;;29.42;56.95;101831.47;5082780;27;64201;-51
2023/09/14 06:54:45;;;;;;;;;9.00;8.33;;;;;30.26;55.23;101836.34;5092681;27;67870;-53
2023/09/14 06:57:10;;;;;;;;;12.00;12.00;;;;;30.76;49.70;101832.19;5079942;27;45564;-51
2023/09/14 06:59:36;;;;;;;;;10.00;10.00;;;;;29.77;49.78;101830.09;5091083;27;72008;-51
2023/09/14 07:02:02;;;;;;;;;12.33;10.33;;;;;28.20;50.57;101838.53;5063996;27;45501;-52
2023/09/14 07:04:28;;;;;;;;;14.33;11.00;;;;;26.84;53.17;101841.09;5097164;27;45327;-52
2023/09/14 07:06:54;;;;;;;;;10.33;9.00;;;;;25.69;54.13;101838.03;5084127;27;45504;-50
2023/09/14 07:09:19;;;;;;;;;11.00;11.00;;;;;24.81;56.67;101849.16;5084140;27;71394;-50
2023/09/14 07:11:44;;;;;;;;;13.67;9.33;;;;;24.15;57.73;101850.72;5082173;27;64612;-51
2023/09/14 07:14:10;;;;;;;;;12.67;11.67;;;;;23.64;59.67;101856.09;5087578;27;67021;-48
2023/09/14 07:16:35;;;;;;;;;17.67;15.67;;;;;23.26;60.50;101852.22;5081627;27;74202;-52
2023/09/14 07:19:00;;;;;;;;;10.00;10.00;;;;;22.96;61.33;101852.00;5072220;27;51997;-51
2023/09/14 07:21:27;;;;;;;;;10.33;10.33;;;;;22.72;62.05;101857.72;5075756;27;45481;-52
2023/09/14 07:23:52;;;;;;;;;9.67;9.33;;;;;22.50;63.26;101855.94;5084627;27;45406;-51
2023/09/14 07:26:17;;;;;;;;;11.33;9.67;;;;;22.35;63.79;101851.78;5082998;27;46238;-51
2023/09/14 07:28:43;;;;;;;;;15.00;14.00;;;;;22.19;64.41;101855.78;5091567;27;45371;-49
2023/09/14 07:31:08;;;;;;;;;16.67;14.00;;;;;22.06;65.24;101855.03;5087127;27;45396;-50
2023/09/14 07:33:34;;;;;;;;;19.00;16.00;;;;;21.92;65.54;101856.19;5089479;27;45448;-52
2023/09/14 07:35:59;;;;;;;;;21.67;18.33;;;;;21.83;65.99;101855.09;5093132;27;47126;-52
2023/09/14 07:38:24;;;;;;;;;17.33;14.33;;;;;21.73;66.62;101848.72;5090816;27;45487;-52
2023/09/14 07:40:51;;;;;;;;;14.67;13.33;;;;;21.65;66.97;101854.75;5086764;27;45514;-52
2023/09/14 07:43:16;;;;;;;;;15.67;13.67;;;;;21.66;66.85;101855.63;5085453;27;45276;-51
2023/09/14 07:45:43;;;;;;;;;15.00;15.00;;;;;21.62;67.17;101850.44;5090957;27;45403;-49
2023/09/14 07:48:09;;;;;;;;;17.33;15.33;;;;;21.53;67.49;101843.03;5082795;27;45459;-52
2023/09/14 07:50:36;;;;;;;;;15.33;14.33;;;;;21.50;68.02;101843.28;5076755;27;45644;-52
2023/09/14 07:53:03;;;;;;;;;15.00;15.00;;;;;21.49;68.24;101846.97;5069082;27;45148;-51
2023/09/14 07:55:28;;;;;;;;;11.00;11.00;;;;;21.51;68.20;101845.00;5080361;27;47257;-52
2023/09/14 07:57:54;;;;;;;;;22.00;19.00;;;;;21.61;67.94;101853.28;5092278;27;45496;-52
2023/09/14 08:00:19;;;;;;;;;15.00;15.00;;;;;21.66;67.76;101851.06;5087169;27;64434;-52
2023/09/14 08:02:44;;;;;;;;;17.67;15.00;;;;;21.71;68.05;101858.81;5090709;27;64896;-50
2023/09/14 08:05:10;;;;;;;;;14.00;14.00;;;;;;;;5062793;28;56406;-50
2023/09/14 08:07:35;;;;;;;;;19.00;17.00;;;;;21.64;68.42;101859.31;5094815;27;45359;-52
2023/09/14 08:10:00;;;;;;;;;15.00;15.00;;;;;21.67;68.59;101852.78;5062597;28;61952;-51
2023/09/14 08:12:26;;;;;;;;;23.00;20.00;;;;;21.69;68.52;101861.63;5085008;27;45450;-52
2023/09/14 08:14:51;;;;;;;;;15.33;13.33;;;;;21.71;68.46;101862.38;5090708;27;46696;-50
2023/09/14 08:17:16;;;;;;;;;16.00;14.67;;;;;21.76;68.35;101864.72;5081170;27;50476;-52
2023/09/14 08:19:43;;;;;;;;;20.33;20.33;;;;;21.85;68.56;101869.38;5064839;27;51627;-52
2023/09/14 08:22:08;;;;;;;;;20.33;17.00;;;;;22.02;68.13;101869.84;5092820;27;45548;-52
2023/09/14 08:24:33;;;;;;;;;13.33;11.67;;;;;22.12;67.53;101870.81;5089545;27;46141;-54
2023/09/14 08:26:59;;;;;;;;;21.00;21.00;;;;;22.16;67.20;101869.56;5087127;27;67931;-52
2023/09/14 08:29:25;;;;;;;;;25.33;23.67;;;;;22.15;67.33;101870.56;5080471;27;45299;-51
2023/09/14 08:31:50;;;;;;;;;23.00;20.00;;;;;22.16;67.32;101874.97;5065294;28;45453;-52
2023/09/14 08:34:16;;;;;;;;;22.00;21.00;;;;;22.15;67.32;101873.28;5095666;27;71369;-50
2023/09/14 08:36:41;;;;;;;;;26.33;24.00;;;;;22.25;67.37;101871.53;5081237;27;45197;-52
2023/09/14 08:39:06;;;;;;;;;23.33;21.67;;;;;22.37;67.11;101876.94;5087692;27;45483;-50
2023/09/14 08:41:37;;;;;;;;;26.67;22.00;;;;;22.43;66.85;101877.28;5095325;27;64823;-49
2023/09/14 08:44:04;;;;;;;;;25.33;21.00;;;;;22.45;66.73;101869.88;5098534;27;45395;-51
2023/09/14 08:46:30;;;;;;;;;23.00;20.00;;;;;22.60;66.76;101877.72;5074530;27;45378;-49
2023/09/14 08:48:57;;;;;;;;;17.33;16.00;;;;;22.86;66.40;101867.34;5081005;27;45343;-51
2023/09/14 08:51:25;;;;;;;;;22.67;21.33;;;;;23.23;65.96;101871.47;5089334;27;45383;-51
2023/09/14 08:53:52;;;;;;;;;19.00;19.00;;;;;23.56;65.29;101864.09;5086082;27;46655;-51
2023/09/14 08:56:17;;;;;;;;;26.00;23.33;;;;;23.71;63.39;101872.72;5088163;27;58265;-52
2023/09/14 08:58:44;;;;;;;;;23.33;21.67;;;;;23.85;62.65;101868.75;5085120;27;52318;-49
2023/09/14 09:01:11;;;;;;;;;22.00;20.33;;;;;24.03;63.39;101869.00;5044744;28;63184;-53
2023/09/14 09:03:36;;;;;;;;;21.00;19.00;;;;;24.17;62.15;101871.31;5076415;27;45877;-52
2023/09/14 09:06:02;;;;;;;;;25.00;20.33;;;;;24.22;62.35;101876.31;5089500;27;62551;-50
2023/09/14 09:08:28;;;;;;;;;22.33;19.00;;;;;24.17;61.50;101882.19;5094789;27;45367;-50
2023/09/14 09:10:53;;;;;;;;;19.00;18.67;;;;;24.08;61.53;101874.88;5088601;27;45350;-52
2023/09/14 09:13:19;;;;;;;;;24.00;21.33;;;;;23.86;60.88;101874.06;5088959;27;74495;-51
2023/09/14 09:15:44;;;;;;;;;26.33;25.33;;;;;23.63;60.97;101873.38;5087864;27;45474;-51
2023/09/14 09:18:11;;;;;;;;;22.00;18.33;;;;;23.59;62.13;101866.53;5085474;27;45366;-53
2023/09/14 09:20:41;;;;;;;;;23.33;16.00;;;;;23.77;62.90;101866.72;5098089;27;46420;-52
2023/09/14 09:23:07;;;;;;;;;15.67;14.33;;;;;24.41;63.36;101862.72;5096530;27;45856;-52
2023/09/14 09:25:49;;;;;;;;;12.67;12.67;;;;;25.25;60.55;101865.81;5099903;27;45505;-50
2023/09/14 09:28:15;;;;;;;;;20.67;20.00;;;;;25.68;60.10;101863.53;5064479;28;45473;-51
2023/09/14 09:30:40;;;;;;;;;26.00;25.00;;;;;27.49;57.41;101859.78;5090334;27;45258;-53
2023/09/14 09:33:07;;;;;;;;;22.33;22.33;;;;;29.50;52.43;101859.69;5095061;27;46060;-52
2023/09/14 09:35:34;;;;;;;;;22.00;20.33;;;;;31.22;50.05;101863.34;5088260;27;45322;-49
2023/09/14 09:38:09;;;;;;;;;23.67;21.00;;;;;32.72;47.50;101858.38;5087567;27;45318;-52
2023/09/14 09:40:34;;;;;;;;;22.00;19.67;;;;;33.79;43.86;101859.97;5061538;28;45330;-54
2023/09/14 09:43:04;;;;;;;;;22.00;21.33;;;;;34.77;43.68;101861.44;5091465;27;58649;-54
2023/09/14 09:45:29;;;;;;;;;15.33;14.00;;;;;35.49;41.67;101866.25;5089954;27;45307;-53
2023/09/14 09:47:54;;;;;;;;;20.33;19.00;;;;;35.22;41.10;101868.22;5086432;27;70276;-54
2023/09/14 09:50:21;;;;;;;;;13.67;12.67;;;;;34.71;41.57;101862.28;5068798;27;58409;-53
2023/09/14 09:52:48;;;;;;;;;21.00;18.33;;;;;34.68;38.28;101864.59;5086185;27;46045;-51
2023/09/14 09:55:22;;;;;;;;;17.00;16.00;;;;;33.73;39.28;101857.16;5087801;27;45291;-52
2023/09/14 09:57:58;;;;;;;;;23.33;18.33;;;;;32.61;39.86;101851.50;5083521;27;45407;-53
2023/09/14 10:00:39;;;;;;;;;18.00;18.00;;;;;31.76;40.58;101849.31;5089871;27;45285;-53
2023/09/14 10:03:04;;;;;;;;;18.67;15.33;;;;;31.20;41.22;101859.91;5079306;27;46236;-54
2023/09/14 10:05:32;;;;;;;;;18.00;16.00;;;;;30.64;40.66;101847.41;5087261;27;45455;-54
2023/09/14 10:07:59;;;;;;;;;17.00;17.00;;;;;30.14;43.06;101844.13;5068697;27;45477;-53
2023/09/14 10:10:26;;;;;;;;;13.33;13.33;;;;;29.91;43.56;101849.56;5089478;27;45673;-50
2023/09/14 10:12:53;;;;;;;;;15.00;12.67;;;;;29.95;45.53;101843.56;5088714;27;45481;-53
2023/09/14 10:15:19;;;;;;;;;10.33;10.33;;;;;29.99;43.42;101846.81;5082513;27;45417;-50
2023/09/14 10:17:47;;;;;;;;;14.67;14.00;;;;;30.39;42.90;101844.81;5058262;27;45315;-54
2023/09/14 10:20:12;;;;;;;;;15.00;14.00;;;;;30.80;42.30;101836.25;5089211;27;45451;-54
2023/09/14 10:22:40;;;;;;;;;13.67;13.33;;;;;30.90;42.16;101836.00;5093976;27;46061;-52
2023/09/14 10:25:08;;;;;;;;;14.33;14.00;;;;;31.14;42.23;101831.31;5084200;27;45516;-54
2023/09/14 10:27:33;;;;;;;;;16.00;14.00;;;;;30.94;40.71;101839.22;5092740;27;45747;-51
2023/09/14 10:29:59;;;;;;;;;14.00;14.00;;;;;30.48;41.00;101819.06;5098434;27;45287;-55
2023/09/14 10:32:25;;;;;;;;;14.33;14.33;;;;;29.94;40.81;101827.31;5076202;27;45362;-51
2023/09/14 10:34:51;;;;;;;;;21.67;20.00;;;;;29.28;39.37;101827.56;5090588;27;58883;-51
2023/09/14 10:37:18;;;;;;;;;12.00;12.00;;;;;28.90;42.16;101827.28;5091498;27;47003;-51
2023/09/14 10:39:45;;;;;;;;;11.33;10.00;;;;;29.24;43.00;101820.69;5085919;27;45579;-53
2023/09/14 10:42:11;;;;;;;;;12.00;10.00;;;;;30.01;42.04;101815.44;5078440;27;46354;-52
2023/09/14 10:44:36;;;;;;;;;12.00;12.00;;;;;30.61;40.74;101812.94;5087291;27;62607;-54
2023/09/14 10:47:02;;;;;;;;;10.67;10.33;;;;;30.58;37.80;101806.97;5082913;27;67342;-54
2023/09/14 10:49:31;;;;;;;;;8.00;8.00;;;;;30.22;40.58;101807.56;5070695;27;45482;-53
2023/09/14 10:51:56;;;;;;;;;7.00;7.00;;;;;29.80;38.23;101807.81;5083312;27;45550;-53
2023/09/14 10:54:24;;;;;;;;;10.75;9.75;;;;;29.34;40.43;101800.31;5072285;27;45366;-50
2023/09/14 10:56:57;;;;;;;;;12.25;9.00;;;;;28.96;40.51;101796.47;5085686;27;46571;-51
2023/09/14 10:59:51;;;;;;;;;11.33;11.00;;;;;28.56;40.90;101801.78;5077161;27;45547;-53
2023/09/14 11:02:43;;;;;;;;;6.67;6.00;;;;;28.15;41.89;101791.69;5082586;27;46148;-54
2023/09/14 11:05:12;;;;;;;;;7.50;7.00;;;;;27.97;40.95;101789.06;5083675;27;47491;-51
2023/09/14 11:07:39;;;;;;;;;7.75;5.50;;;;;27.90;40.54;101798.97;5087439;27;45485;-51